createdAt,value
2017-07-22T00:00:01.534Z,931.78
2017-07-22T00:00:20.803Z,931.76
2017-07-22T00:00:40.104Z,931.73
2017-07-22T00:00:59.814Z,931.76
2017-07-22T00:01:19.136Z,931.81
2017-07-22T00:01:38.409Z,931.77
2017-07-22T00:01:57.765Z,931.76
2017-07-22T00:02:16.541Z,931.77
2017-07-22T00:02:35.329Z,931.8
2017-07-22T00:02:54.626Z,931.75
2017-07-22T00:03:13.916Z,931.79
2017-07-22T00:03:32.695Z,931.76
2017-07-22T00:03:51.986Z,931.76
2017-07-22T00:04:10.744Z,931.76
2017-07-22T00:04:30.032Z,931.76
2017-07-22T00:04:49.314Z,931.8
2017-07-22T00:05:08.642Z,931.78
2017-07-22T00:05:27.449Z,931.75
2017-07-22T00:05:46.218Z,931.74
2017-07-22T00:06:04.996Z,931.77
2017-07-22T00:06:23.267Z,931.77
2017-07-22T00:06:42.574Z,931.78
2017-07-22T00:07:01.852Z,931.79
2017-07-22T00:07:20.634Z,931.76
2017-07-22T00:07:39.472Z,931.76
2017-07-22T00:07:58.235Z,931.76
2017-07-22T00:08:17.488Z,931.76
2017-07-22T00:08:36.855Z,931.74
2017-07-22T00:08:56.249Z,931.77
2017-07-22T00:09:15.558Z,931.76
2017-07-22T00:09:34.877Z,931.78
2017-07-22T00:09:54.174Z,931.76
2017-07-22T00:10:11.961Z,931.78
2017-07-22T00:10:31.232Z,931.79
2017-07-22T00:10:50.494Z,931.78
2017-07-22T00:11:09.827Z,931.8
2017-07-22T00:11:28.570Z,931.82
2017-07-22T00:11:47.867Z,931.82
2017-07-22T00:12:06.615Z,931.82
2017-07-22T00:12:25.365Z,931.76
2017-07-22T00:12:43.609Z,931.77
2017-07-22T00:13:02.904Z,931.79
2017-07-22T00:13:22.189Z,931.82
2017-07-22T00:13:41.489Z,931.81
2017-07-22T00:14:00.769Z,931.83
2017-07-22T00:14:20.081Z,931.79
2017-07-22T00:14:39.365Z,931.82
2017-07-22T00:14:58.145Z,931.8
2017-07-22T00:15:17.532Z,931.84
2017-07-22T00:15:36.302Z,931.84
2017-07-22T00:15:55.606Z,931.84
2017-07-22T00:16:14.880Z,931.82
2017-07-22T00:16:34.181Z,931.83
2017-07-22T00:16:52.960Z,931.82
2017-07-22T00:17:11.727Z,931.82
2017-07-22T00:17:30.999Z,931.84
2017-07-22T00:17:49.253Z,931.85
2017-07-22T00:18:08.023Z,931.79
2017-07-22T00:18:27.304Z,931.83
2017-07-22T00:18:46.579Z,931.76
2017-07-22T00:19:05.874Z,931.8
2017-07-22T00:19:24.630Z,931.8
2017-07-22T00:19:43.409Z,931.79
2017-07-22T00:20:02.679Z,931.77
2017-07-22T00:20:21.993Z,931.75
2017-07-22T00:20:41.310Z,931.77
2017-07-22T00:21:00.576Z,931.8
2017-07-22T00:21:19.338Z,931.83
2017-07-22T00:21:38.725Z,931.81
2017-07-22T00:21:57.589Z,931.79
2017-07-22T00:22:15.852Z,931.77
2017-07-22T00:22:34.622Z,931.8
2017-07-22T00:22:53.906Z,931.79
2017-07-22T00:23:12.648Z,931.79
2017-07-22T00:23:31.941Z,931.83
2017-07-22T00:23:51.232Z,931.83
2017-07-22T00:24:10.492Z,931.82
2017-07-22T00:24:29.757Z,931.83
2017-07-22T00:24:48.534Z,931.83
2017-07-22T00:25:07.825Z,931.81
2017-07-22T00:25:27.103Z,931.81
2017-07-22T00:25:45.856Z,931.81
2017-07-22T00:26:05.136Z,931.81
2017-07-22T00:26:23.930Z,931.81
2017-07-22T00:26:43.249Z,931.83
2017-07-22T00:27:02.539Z,931.85
2017-07-22T00:27:21.830Z,931.82
2017-07-22T00:27:41.136Z,931.87
2017-07-22T00:28:00.456Z,931.87
2017-07-22T00:28:19.809Z,931.87
2017-07-22T00:28:39.155Z,931.84
2017-07-22T00:28:58.647Z,931.87
2017-07-22T00:29:17.986Z,931.87
2017-07-22T00:29:37.374Z,931.87
2017-07-22T00:29:56.709Z,931.89
2017-07-22T00:30:16.497Z,931.9
2017-07-22T00:30:35.333Z,931.93
2017-07-22T00:30:53.772Z,931.92
2017-07-22T00:31:12.586Z,931.9
2017-07-22T00:31:31.856Z,931.9
2017-07-22T00:31:51.134Z,931.89
2017-07-22T00:32:10.413Z,931.89
2017-07-22T00:32:29.701Z,931.86
2017-07-22T00:32:48.447Z,931.91
2017-07-22T00:33:07.717Z,931.87
2017-07-22T00:33:26.974Z,931.89
2017-07-22T00:33:45.783Z,931.88
2017-07-22T00:34:05.092Z,931.91
2017-07-22T00:34:23.326Z,931.91
2017-07-22T00:34:42.134Z,931.96
2017-07-22T00:35:01.466Z,931.91
2017-07-22T00:35:20.762Z,931.92
2017-07-22T00:35:40.035Z,931.94
2017-07-22T00:35:59.298Z,931.89
2017-07-22T00:36:18.074Z,931.94
2017-07-22T00:36:36.847Z,931.92
2017-07-22T00:36:56.113Z,931.97
2017-07-22T00:37:15.385Z,931.95
2017-07-22T00:37:34.649Z,931.96
2017-07-22T00:37:53.927Z,931.95
2017-07-22T00:38:12.698Z,931.95
2017-07-22T00:38:32.007Z,931.94
2017-07-22T00:38:51.314Z,931.93
2017-07-22T00:39:10.601Z,931.92
2017-07-22T00:39:29.870Z,931.94
2017-07-22T00:39:49.195Z,931.94
2017-07-22T00:40:08.513Z,931.97
2017-07-22T00:40:27.793Z,931.96
2017-07-22T00:40:46.552Z,931.97
2017-07-22T00:41:05.860Z,931.96
2017-07-22T00:41:25.139Z,931.98
2017-07-22T00:41:44.420Z,931.96
2017-07-22T00:42:03.679Z,931.98
2017-07-22T00:42:22.434Z,931.96
2017-07-22T00:42:41.697Z,931.95
2017-07-22T00:43:00.967Z,931.95
2017-07-22T00:43:20.262Z,931.98
2017-07-22T00:43:39.542Z,931.96
2017-07-22T00:43:58.828Z,931.97
2017-07-22T00:44:17.587Z,931.97
2017-07-22T00:44:36.861Z,931.97
2017-07-22T00:44:56.160Z,931.97
2017-07-22T00:45:16.763Z,931.94
2017-07-22T00:45:36.023Z,931.96
2017-07-22T00:45:54.786Z,931.99
2017-07-22T00:46:14.070Z,931.99
2017-07-22T00:46:32.845Z,931.95
2017-07-22T00:46:52.129Z,931.96
2017-07-22T00:47:11.447Z,931.95
2017-07-22T00:47:30.756Z,931.97
2017-07-22T00:47:50.023Z,931.93
2017-07-22T00:48:09.350Z,932
2017-07-22T00:48:28.628Z,932.04
2017-07-22T00:48:47.931Z,931.98
2017-07-22T00:49:07.211Z,931.99
2017-07-22T00:49:25.991Z,931.96
2017-07-22T00:49:45.295Z,931.96
2017-07-22T00:50:04.560Z,931.95
2017-07-22T00:50:23.323Z,931.93
2017-07-22T00:50:42.647Z,931.98
2017-07-22T00:51:01.910Z,931.97
2017-07-22T00:51:21.217Z,931.98
2017-07-22T00:51:40.499Z,932
2017-07-22T00:51:59.811Z,931.99
2017-07-22T00:52:19.103Z,931.98
2017-07-22T00:52:37.870Z,931.97
2017-07-22T00:52:57.164Z,932
2017-07-22T00:53:16.044Z,931.98
2017-07-22T00:53:35.364Z,931.97
2017-07-22T00:53:54.881Z,931.99
2017-07-22T00:54:14.174Z,932
2017-07-22T00:54:32.923Z,931.98
2017-07-22T00:54:52.222Z,932
2017-07-22T00:55:10.984Z,931.95
2017-07-22T00:55:30.279Z,931.97
2017-07-22T00:55:49.570Z,931.96
2017-07-22T00:56:08.904Z,931.99
2017-07-22T00:56:28.184Z,931.97
2017-07-22T00:56:47.476Z,931.94
2017-07-22T00:57:06.753Z,931.98
2017-07-22T00:57:26.084Z,931.97
2017-07-22T00:57:45.355Z,932
2017-07-22T00:58:04.630Z,932.03
2017-07-22T00:58:22.893Z,932.01
2017-07-22T00:58:42.166Z,931.98
2017-07-22T00:59:01.448Z,932.01
2017-07-22T00:59:20.713Z,932.04
2017-07-22T00:59:39.975Z,932
2017-07-22T00:59:58.772Z,932.04
2017-07-22T01:00:18.070Z,932.05
2017-07-22T01:00:37.330Z,932.06
2017-07-22T01:00:56.078Z,932.03
2017-07-22T01:01:14.872Z,932.03
2017-07-22T01:01:34.143Z,932.03
2017-07-22T01:01:52.919Z,932.03
2017-07-22T01:02:11.683Z,932.03
2017-07-22T01:02:30.947Z,932.03
2017-07-22T01:02:49.738Z,932.05
2017-07-22T01:03:08.520Z,932.04
2017-07-22T01:03:27.830Z,932.04
2017-07-22T01:03:47.129Z,932
2017-07-22T01:04:06.457Z,932.05
2017-07-22T01:04:25.752Z,932
2017-07-22T01:04:45.055Z,932.01
2017-07-22T01:05:04.470Z,932.02
2017-07-22T01:05:23.371Z,932.04
2017-07-22T01:05:42.688Z,932.03
2017-07-22T01:06:02.007Z,932.01
2017-07-22T01:06:21.297Z,932.01
2017-07-22T01:06:40.719Z,932.02
2017-07-22T01:07:00.007Z,932.02
2017-07-22T01:07:19.307Z,931.98
2017-07-22T01:07:38.593Z,931.97
2017-07-22T01:07:57.887Z,932.01
2017-07-22T01:08:17.171Z,932.02
2017-07-22T01:08:36.511Z,932.03
2017-07-22T01:08:55.802Z,932.01
2017-07-22T01:09:14.601Z,931.99
2017-07-22T01:09:33.902Z,932
2017-07-22T01:09:53.202Z,932.04
2017-07-22T01:10:11.965Z,932
2017-07-22T01:10:31.226Z,932.06
2017-07-22T01:10:50.529Z,932.03
2017-07-22T01:11:09.350Z,932.05
2017-07-22T01:11:28.660Z,931.99
2017-07-22T01:11:47.985Z,932.02
2017-07-22T01:12:07.293Z,932
2017-07-22T01:12:26.090Z,932.04
2017-07-22T01:12:45.345Z,932.05
2017-07-22T01:13:04.621Z,932
2017-07-22T01:13:23.396Z,932.03
2017-07-22T01:13:42.692Z,932.04
2017-07-22T01:14:01.659Z,932.02
2017-07-22T01:14:19.917Z,932.02
2017-07-22T01:14:39.212Z,932.04
2017-07-22T01:14:58.506Z,932.03
2017-07-22T01:15:17.807Z,932.05
2017-07-22T01:15:37.087Z,932.06
2017-07-22T01:15:56.381Z,932.04
2017-07-22T01:16:15.675Z,932.07
2017-07-22T01:16:35.018Z,932.06
2017-07-22T01:16:54.276Z,932.07
2017-07-22T01:17:13.572Z,932.05
2017-07-22T01:17:32.850Z,932.06
2017-07-22T01:17:52.169Z,932.05
2017-07-22T01:18:11.429Z,932.05
2017-07-22T01:18:30.211Z,932.07
2017-07-22T01:18:49.658Z,932.08
2017-07-22T01:19:08.926Z,932.08
2017-07-22T01:19:28.216Z,932.09
2017-07-22T01:19:47.501Z,932.05
2017-07-22T01:20:06.274Z,932.08
2017-07-22T01:20:25.046Z,932.08
2017-07-22T01:20:44.338Z,932.06
2017-07-22T01:21:03.657Z,932.05
2017-07-22T01:21:22.930Z,932.05
2017-07-22T01:21:42.194Z,932.05
2017-07-22T01:22:01.473Z,932.03
2017-07-22T01:22:20.228Z,932.06
2017-07-22T01:22:39.000Z,932.05
2017-07-22T01:22:58.274Z,932.03
2017-07-22T01:23:17.548Z,932.07
2017-07-22T01:23:36.841Z,932.08
2017-07-22T01:23:56.100Z,932.08
2017-07-22T01:24:14.874Z,932.06
2017-07-22T01:24:34.129Z,932.05
2017-07-22T01:24:52.880Z,932.07
2017-07-22T01:25:12.183Z,932.07
2017-07-22T01:25:30.973Z,932.06
2017-07-22T01:25:50.248Z,932.09
2017-07-22T01:26:09.561Z,932.06
2017-07-22T01:26:28.817Z,932.03
2017-07-22T01:26:48.068Z,932.03
2017-07-22T01:27:07.368Z,932.04
2017-07-22T01:27:26.689Z,932.05
2017-07-22T01:27:45.466Z,932.06
2017-07-22T01:28:04.759Z,932.11
2017-07-22T01:28:24.022Z,932.06
2017-07-22T01:28:43.331Z,932.07
2017-07-22T01:29:02.607Z,932.03
2017-07-22T01:29:21.919Z,932.05
2017-07-22T01:29:41.314Z,932.07
2017-07-22T01:30:00.647Z,932.06
2017-07-22T01:30:19.945Z,932.08
2017-07-22T01:30:38.703Z,932.06
2017-07-22T01:30:57.524Z,932.09
2017-07-22T01:31:16.790Z,932.07
2017-07-22T01:31:36.081Z,932.08
2017-07-22T01:31:55.354Z,932.11
2017-07-22T01:32:14.659Z,932.1
2017-07-22T01:32:33.951Z,932.09
2017-07-22T01:32:53.322Z,932.1
2017-07-22T01:33:12.092Z,932.09
2017-07-22T01:33:30.848Z,932.06
2017-07-22T01:33:50.241Z,932.08
2017-07-22T01:34:09.537Z,932.08
2017-07-22T01:34:28.835Z,932.05
2017-07-22T01:34:48.143Z,932.07
2017-07-22T01:35:06.903Z,932.07
2017-07-22T01:35:25.706Z,932.06
2017-07-22T01:35:44.970Z,932.06
2017-07-22T01:36:04.233Z,932.07
2017-07-22T01:36:22.494Z,932.06
2017-07-22T01:36:41.765Z,932.03
2017-07-22T01:37:01.038Z,932.04
2017-07-22T01:37:20.333Z,932.05
2017-07-22T01:37:39.631Z,932.05
2017-07-22T01:37:58.958Z,932.04
2017-07-22T01:38:18.230Z,932.02
2017-07-22T01:38:37.501Z,932.05
2017-07-22T01:38:56.259Z,932.09
2017-07-22T01:39:15.519Z,932.07
2017-07-22T01:39:34.316Z,932.05
2017-07-22T01:39:52.581Z,932.06
2017-07-22T01:40:11.881Z,932.08
2017-07-22T01:40:31.203Z,932.08
2017-07-22T01:40:49.959Z,932.03
2017-07-22T01:41:09.211Z,932.03
2017-07-22T01:41:28.477Z,932.07
2017-07-22T01:41:47.260Z,932.01
2017-07-22T01:42:06.524Z,932.06
2017-07-22T01:42:25.817Z,932.05
2017-07-22T01:42:45.128Z,932.03
2017-07-22T01:43:04.421Z,932.02
2017-07-22T01:43:23.699Z,932.01
2017-07-22T01:43:42.978Z,932
2017-07-22T01:44:02.325Z,932.02
2017-07-22T01:44:21.096Z,932.01
2017-07-22T01:44:39.886Z,931.98
2017-07-22T01:44:59.158Z,932.02
2017-07-22T01:45:18.446Z,931.97
2017-07-22T01:45:37.736Z,931.97
2017-07-22T01:45:57.021Z,931.99
2017-07-22T01:46:16.332Z,931.98
2017-07-22T01:46:35.621Z,931.98
2017-07-22T01:46:54.862Z,931.97
2017-07-22T01:47:14.145Z,931.97
2017-07-22T01:47:32.896Z,932
2017-07-22T01:47:52.188Z,932
2017-07-22T01:48:10.441Z,931.98
2017-07-22T01:48:29.707Z,932
2017-07-22T01:48:49.161Z,932
2017-07-22T01:49:08.443Z,931.99
2017-07-22T01:49:27.716Z,931.95
2017-07-22T01:49:47.036Z,931.97
2017-07-22T01:50:05.792Z,931.97
2017-07-22T01:50:25.064Z,931.95
2017-07-22T01:50:44.357Z,931.96
2017-07-22T01:51:03.666Z,932
2017-07-22T01:51:22.956Z,931.99
2017-07-22T01:51:41.712Z,931.97
2017-07-22T01:52:00.454Z,931.97
2017-07-22T01:52:19.780Z,931.96
2017-07-22T01:52:39.062Z,931.95
2017-07-22T01:52:57.827Z,931.96
2017-07-22T01:53:16.595Z,931.97
2017-07-22T01:53:35.897Z,931.93
2017-07-22T01:53:55.173Z,931.93
2017-07-22T01:54:14.444Z,931.94
2017-07-22T01:54:33.737Z,931.94
2017-07-22T01:54:52.524Z,931.89
2017-07-22T01:55:11.792Z,931.93
2017-07-22T01:55:31.068Z,931.95
2017-07-22T01:55:50.329Z,931.98
2017-07-22T01:56:09.660Z,931.97
2017-07-22T01:56:28.924Z,931.9
2017-07-22T01:56:47.756Z,931.97
2017-07-22T01:57:07.029Z,931.92
2017-07-22T01:57:26.329Z,931.91
2017-07-22T01:57:45.082Z,931.92
2017-07-22T01:58:04.362Z,931.91
2017-07-22T01:58:23.646Z,931.94
2017-07-22T01:58:42.940Z,931.94
2017-07-22T01:59:02.207Z,931.92
2017-07-22T01:59:21.475Z,931.94
2017-07-22T01:59:40.763Z,931.96
2017-07-22T02:00:00.092Z,931.96
2017-07-22T02:00:18.866Z,931.92
2017-07-22T02:00:38.143Z,931.94
2017-07-22T02:00:57.440Z,931.95
2017-07-22T02:01:16.716Z,931.96
2017-07-22T02:01:35.523Z,931.95
2017-07-22T02:01:54.801Z,931.98
2017-07-22T02:02:14.088Z,931.98
2017-07-22T02:02:33.388Z,931.97
2017-07-22T02:02:52.677Z,931.98
2017-07-22T02:03:11.962Z,931.96
2017-07-22T02:03:31.222Z,931.97
2017-07-22T02:04:04.776Z,931.95
2017-07-22T02:04:23.546Z,931.97
2017-07-22T02:04:42.806Z,931.96
2017-07-22T02:05:02.111Z,931.96
2017-07-22T02:05:21.386Z,931.98
2017-07-22T02:05:40.677Z,931.92
2017-07-22T02:05:59.962Z,931.9
2017-07-22T02:06:19.248Z,931.91
2017-07-22T02:06:38.007Z,931.93
2017-07-22T02:06:57.309Z,931.91
2017-07-22T02:07:16.086Z,931.95
2017-07-22T02:07:34.861Z,931.92
2017-07-22T02:07:53.636Z,931.96
2017-07-22T02:08:12.938Z,931.93
2017-07-22T02:08:31.702Z,931.89
2017-07-22T02:08:50.458Z,931.92
2017-07-22T02:09:09.736Z,931.9
2017-07-22T02:09:28.494Z,931.9
2017-07-22T02:09:47.772Z,931.89
2017-07-22T02:10:07.056Z,931.92
2017-07-22T02:10:25.812Z,931.88
2017-07-22T02:10:45.118Z,931.93
2017-07-22T02:11:04.371Z,931.94
2017-07-22T02:11:23.698Z,931.91
2017-07-22T02:11:42.967Z,931.89
2017-07-22T02:12:02.255Z,931.89
2017-07-22T02:12:21.024Z,931.88
2017-07-22T02:12:40.340Z,931.89
2017-07-22T02:12:59.642Z,931.91
2017-07-22T02:13:18.909Z,931.91
2017-07-22T02:13:38.211Z,931.87
2017-07-22T02:13:57.565Z,931.87
2017-07-22T02:14:16.847Z,931.87
2017-07-22T02:14:35.638Z,931.88
2017-07-22T02:14:54.972Z,931.9
2017-07-22T02:15:14.238Z,931.9
2017-07-22T02:15:32.997Z,931.85
2017-07-22T02:15:52.263Z,931.89
2017-07-22T02:16:11.522Z,931.88
2017-07-22T02:16:30.803Z,931.86
2017-07-22T02:16:50.119Z,931.87
2017-07-22T02:17:08.923Z,931.86
2017-07-22T02:17:28.192Z,931.84
2017-07-22T02:17:47.450Z,931.84
2017-07-22T02:18:06.218Z,931.88
2017-07-22T02:18:25.532Z,931.87
2017-07-22T02:18:44.840Z,931.88
2017-07-22T02:19:04.185Z,931.89
2017-07-22T02:19:23.497Z,931.91
2017-07-22T02:19:42.810Z,931.92
2017-07-22T02:20:01.586Z,931.86
2017-07-22T02:20:20.898Z,931.88
2017-07-22T02:20:40.204Z,931.89
2017-07-22T02:20:59.510Z,931.89
2017-07-22T02:21:18.283Z,931.86
2017-07-22T02:21:37.614Z,931.89
2017-07-22T02:21:56.926Z,931.89
2017-07-22T02:22:15.668Z,931.88
2017-07-22T02:22:34.453Z,931.89
2017-07-22T02:22:53.756Z,931.9
2017-07-22T02:23:13.065Z,931.87
2017-07-22T02:23:32.358Z,931.92
2017-07-22T02:23:51.647Z,931.93
2017-07-22T02:24:10.425Z,931.92
2017-07-22T02:24:29.710Z,931.91
2017-07-22T02:24:48.984Z,931.92
2017-07-22T02:25:08.251Z,931.92
2017-07-22T02:25:27.015Z,931.89
2017-07-22T02:25:46.320Z,931.86
2017-07-22T02:26:05.619Z,931.89
2017-07-22T02:26:23.903Z,931.86
2017-07-22T02:26:42.676Z,931.91
2017-07-22T02:27:01.447Z,931.92
2017-07-22T02:27:20.187Z,931.9
2017-07-22T02:27:39.473Z,931.91
2017-07-22T02:27:58.229Z,931.95
2017-07-22T02:28:17.545Z,931.92
2017-07-22T02:28:36.828Z,931.9
2017-07-22T02:28:55.597Z,931.92
2017-07-22T02:29:14.894Z,931.89
2017-07-22T02:29:33.646Z,931.86
2017-07-22T02:29:52.927Z,931.92
2017-07-22T02:30:11.714Z,931.92
2017-07-22T02:30:31.043Z,931.89
2017-07-22T02:30:50.350Z,931.91
2017-07-22T02:31:09.646Z,931.89
2017-07-22T02:31:28.921Z,931.91
2017-07-22T02:31:48.203Z,931.92
2017-07-22T02:32:07.453Z,931.94
2017-07-22T02:32:26.712Z,931.96
2017-07-22T02:32:45.509Z,931.93
2017-07-22T02:33:04.795Z,931.92
2017-07-22T02:33:24.091Z,931.93
2017-07-22T02:33:43.373Z,931.91
2017-07-22T02:34:02.135Z,931.95
2017-07-22T02:34:20.891Z,931.94
2017-07-22T02:34:40.170Z,931.9
2017-07-22T02:34:59.436Z,931.9
2017-07-22T02:35:18.718Z,931.91
2017-07-22T02:35:38.018Z,931.88
2017-07-22T02:35:57.317Z,931.88
2017-07-22T02:36:15.570Z,931.87
2017-07-22T02:36:34.879Z,931.87
2017-07-22T02:36:54.157Z,931.89
2017-07-22T02:37:13.442Z,931.89
2017-07-22T02:37:32.743Z,931.91
2017-07-22T02:37:52.013Z,931.9
2017-07-22T02:38:11.267Z,931.9
2017-07-22T02:38:30.550Z,931.91
2017-07-22T02:38:49.816Z,931.93
2017-07-22T02:39:09.243Z,931.89
2017-07-22T02:39:28.529Z,931.9
2017-07-22T02:39:47.311Z,931.92
2017-07-22T02:40:06.601Z,931.92
2017-07-22T02:40:25.886Z,931.91
2017-07-22T02:40:44.657Z,931.92
2017-07-22T02:41:03.944Z,931.9
2017-07-22T02:41:23.219Z,931.91
2017-07-22T02:41:42.492Z,931.9
2017-07-22T02:42:01.797Z,931.87
2017-07-22T02:42:20.075Z,931.88
2017-07-22T02:42:38.852Z,931.89
2017-07-22T02:42:58.122Z,931.88
2017-07-22T02:43:17.420Z,931.89
2017-07-22T02:43:36.719Z,931.88
2017-07-22T02:43:55.500Z,931.88
2017-07-22T02:44:14.892Z,931.88
2017-07-22T02:44:34.189Z,931.91
2017-07-22T02:44:52.960Z,931.91
2017-07-22T02:45:12.252Z,931.93
2017-07-22T02:45:31.532Z,931.9
2017-07-22T02:45:50.307Z,931.89
2017-07-22T02:46:09.613Z,931.9
2017-07-22T02:46:28.898Z,931.88
2017-07-22T02:46:47.667Z,931.91
2017-07-22T02:47:06.943Z,931.97
2017-07-22T02:47:26.236Z,931.94
2017-07-22T02:47:45.538Z,931.9
2017-07-22T02:48:04.826Z,931.93
2017-07-22T02:48:23.608Z,931.9
2017-07-22T02:48:42.910Z,931.93
2017-07-22T02:49:02.459Z,931.93
2017-07-22T02:49:21.250Z,931.92
2017-07-22T02:49:40.526Z,931.92
2017-07-22T02:49:59.268Z,931.92
2017-07-22T02:50:18.530Z,931.91
2017-07-22T02:50:37.801Z,931.91
2017-07-22T02:50:57.099Z,931.89
2017-07-22T02:51:15.338Z,931.89
2017-07-22T02:51:34.602Z,931.85
2017-07-22T02:51:53.896Z,931.9
2017-07-22T02:52:12.662Z,931.91
2017-07-22T02:52:31.978Z,931.92
2017-07-22T02:52:51.262Z,931.85
2017-07-22T02:53:10.559Z,931.89
2017-07-22T02:53:29.858Z,931.92
2017-07-22T02:53:49.151Z,931.93
2017-07-22T02:54:08.446Z,931.87
2017-07-22T02:54:27.198Z,931.9
2017-07-22T02:54:46.471Z,931.92
2017-07-22T02:55:05.742Z,931.86
2017-07-22T02:55:25.034Z,931.87
2017-07-22T02:55:44.308Z,931.86
2017-07-22T02:56:03.547Z,931.86
2017-07-22T02:56:22.813Z,931.88
2017-07-22T02:56:42.104Z,931.91
2017-07-22T02:57:01.384Z,931.9
2017-07-22T02:57:20.711Z,931.9
2017-07-22T02:57:39.990Z,931.92
2017-07-22T02:57:58.766Z,931.87
2017-07-22T02:58:17.560Z,931.87
2017-07-22T02:58:36.828Z,931.89
2017-07-22T02:58:55.587Z,931.87
2017-07-22T02:59:14.863Z,931.86
2017-07-22T02:59:34.154Z,931.86
2017-07-22T02:59:52.901Z,931.88
2017-07-22T03:00:12.192Z,931.87
2017-07-22T03:00:31.493Z,931.89
2017-07-22T03:00:50.262Z,931.91
2017-07-22T03:01:09.572Z,931.86
2017-07-22T03:01:28.852Z,931.91
2017-07-22T03:01:48.118Z,931.87
2017-07-22T03:02:07.391Z,931.9
2017-07-22T03:02:26.164Z,931.89
2017-07-22T03:02:45.428Z,931.88
2017-07-22T03:03:04.700Z,931.92
2017-07-22T03:03:23.967Z,931.88
2017-07-22T03:03:43.262Z,931.91
2017-07-22T03:04:02.147Z,931.93
2017-07-22T03:04:21.433Z,931.93
2017-07-22T03:04:40.732Z,931.87
2017-07-22T03:05:00.041Z,931.88
2017-07-22T03:05:19.317Z,931.89
2017-07-22T03:05:38.598Z,931.86
2017-07-22T03:05:57.865Z,931.91
2017-07-22T03:06:16.633Z,931.84
2017-07-22T03:06:35.930Z,931.87
2017-07-22T03:06:55.198Z,931.9
2017-07-22T03:07:14.475Z,931.93
2017-07-22T03:07:32.721Z,931.87
2017-07-22T03:07:52.038Z,931.9
2017-07-22T03:08:11.347Z,931.85
2017-07-22T03:08:30.645Z,931.86
2017-07-22T03:08:49.918Z,931.87
2017-07-22T03:09:09.323Z,931.88
2017-07-22T03:09:28.632Z,931.9
2017-07-22T03:09:47.919Z,931.89
2017-07-22T03:10:07.209Z,931.87
2017-07-22T03:10:26.465Z,931.87
2017-07-22T03:10:45.744Z,931.88
2017-07-22T03:11:05.012Z,931.87
2017-07-22T03:11:24.289Z,931.85
2017-07-22T03:11:43.576Z,931.87
2017-07-22T03:12:02.345Z,931.89
2017-07-22T03:12:21.108Z,931.88
2017-07-22T03:12:40.390Z,931.86
2017-07-22T03:12:59.653Z,931.87
2017-07-22T03:13:18.934Z,931.88
2017-07-22T03:13:37.721Z,931.89
2017-07-22T03:13:57.006Z,931.86
2017-07-22T03:14:15.274Z,931.87
2017-07-22T03:14:34.043Z,931.88
2017-07-22T03:14:52.297Z,931.85
2017-07-22T03:15:11.579Z,931.87
2017-07-22T03:15:30.847Z,931.89
2017-07-22T03:15:50.136Z,931.86
2017-07-22T03:16:09.426Z,931.83
2017-07-22T03:16:28.722Z,931.87
2017-07-22T03:16:48.014Z,931.86
2017-07-22T03:17:07.318Z,931.86
2017-07-22T03:17:26.571Z,931.88
2017-07-22T03:17:45.839Z,931.88
2017-07-22T03:18:05.130Z,931.86
2017-07-22T03:18:24.431Z,931.87
2017-07-22T03:18:43.784Z,931.87
2017-07-22T03:19:03.367Z,931.87
2017-07-22T03:19:21.633Z,931.82
2017-07-22T03:19:40.377Z,931.82
2017-07-22T03:19:59.149Z,931.83
2017-07-22T03:20:17.926Z,931.85
2017-07-22T03:20:37.246Z,931.82
2017-07-22T03:20:56.560Z,931.85
2017-07-22T03:21:15.845Z,931.83
2017-07-22T03:21:34.621Z,931.84
2017-07-22T03:21:53.403Z,931.81
2017-07-22T03:22:12.699Z,931.86
2017-07-22T03:22:31.979Z,931.82
2017-07-22T03:22:51.259Z,931.84
2017-07-22T03:23:10.021Z,931.82
2017-07-22T03:23:29.285Z,931.84
2017-07-22T03:23:48.549Z,931.8
2017-07-22T03:24:07.836Z,931.82
2017-07-22T03:24:26.585Z,931.84
2017-07-22T03:24:44.831Z,931.79
2017-07-22T03:25:03.624Z,931.82
2017-07-22T03:25:22.382Z,931.79
2017-07-22T03:25:41.655Z,931.84
2017-07-22T03:25:59.927Z,931.79
2017-07-22T03:26:19.196Z,931.76
2017-07-22T03:26:38.465Z,931.76
2017-07-22T03:26:57.249Z,931.78
2017-07-22T03:27:16.552Z,931.79
2017-07-22T03:27:35.855Z,931.75
2017-07-22T03:27:54.607Z,931.74
2017-07-22T03:28:13.902Z,931.8
2017-07-22T03:28:33.197Z,931.75
2017-07-22T03:28:52.474Z,931.77
2017-07-22T03:29:11.248Z,931.78
2017-07-22T03:29:30.535Z,931.78
2017-07-22T03:29:49.279Z,931.79
2017-07-22T03:30:08.565Z,931.81
2017-07-22T03:30:27.859Z,931.78
2017-07-22T03:30:46.647Z,931.77
2017-07-22T03:31:05.446Z,931.78
2017-07-22T03:31:24.228Z,931.75
2017-07-22T03:31:43.564Z,931.76
2017-07-22T03:32:02.813Z,931.69
2017-07-22T03:32:21.571Z,931.7
2017-07-22T03:32:40.845Z,931.68
2017-07-22T03:33:00.116Z,931.69
2017-07-22T03:33:19.393Z,931.68
2017-07-22T03:33:38.672Z,931.66
2017-07-22T03:33:57.424Z,931.66
2017-07-22T03:34:15.678Z,931.7
2017-07-22T03:34:34.936Z,931.69
2017-07-22T03:34:54.211Z,931.66
2017-07-22T03:35:13.558Z,931.67
2017-07-22T03:35:32.810Z,931.71
2017-07-22T03:35:52.080Z,931.68
2017-07-22T03:36:11.373Z,931.65
2017-07-22T03:36:30.696Z,931.67
2017-07-22T03:36:49.990Z,931.69
2017-07-22T03:37:09.264Z,931.69
2017-07-22T03:37:28.568Z,931.71
2017-07-22T03:37:47.345Z,931.71
2017-07-22T03:38:06.615Z,931.7
2017-07-22T03:38:25.405Z,931.7
2017-07-22T03:38:44.191Z,931.72
2017-07-22T03:39:03.483Z,931.74
2017-07-22T03:39:22.256Z,931.7
2017-07-22T03:39:41.016Z,931.7
2017-07-22T03:40:00.284Z,931.71
2017-07-22T03:40:19.044Z,931.7
2017-07-22T03:40:38.338Z,931.71
2017-07-22T03:40:57.628Z,931.74
2017-07-22T03:41:16.911Z,931.7
2017-07-22T03:41:36.182Z,931.71
2017-07-22T03:41:55.471Z,931.7
2017-07-22T03:42:14.750Z,931.72
2017-07-22T03:42:34.014Z,931.74
2017-07-22T03:42:53.307Z,931.72
2017-07-22T03:43:12.586Z,931.74
2017-07-22T03:43:31.865Z,931.72
2017-07-22T03:43:51.145Z,931.72
2017-07-22T03:44:10.557Z,931.67
2017-07-22T03:44:28.801Z,931.73
2017-07-22T03:44:48.091Z,931.74
2017-07-22T03:45:07.363Z,931.71
2017-07-22T03:45:26.145Z,931.72
2017-07-22T03:45:45.407Z,931.75
2017-07-22T03:46:04.703Z,931.75
2017-07-22T03:46:23.485Z,931.76
2017-07-22T03:46:42.762Z,931.74
2017-07-22T03:47:02.048Z,931.73
2017-07-22T03:47:21.317Z,931.74
2017-07-22T03:47:40.626Z,931.75
2017-07-22T03:47:59.919Z,931.71
2017-07-22T03:48:18.693Z,931.69
2017-07-22T03:48:37.963Z,931.71
2017-07-22T03:48:57.319Z,931.7
2017-07-22T03:49:16.607Z,931.71
2017-07-22T03:49:35.896Z,931.71
2017-07-22T03:49:54.675Z,931.73
2017-07-22T03:50:13.981Z,931.74
2017-07-22T03:50:33.290Z,931.76
2017-07-22T03:50:52.095Z,931.73
2017-07-22T03:51:11.386Z,931.74
2017-07-22T03:51:30.170Z,931.76
2017-07-22T03:51:49.483Z,931.75
2017-07-22T03:52:08.767Z,931.75
2017-07-22T03:52:28.060Z,931.73
2017-07-22T03:52:46.849Z,931.75
2017-07-22T03:53:06.128Z,931.71
2017-07-22T03:53:25.420Z,931.7
2017-07-22T03:53:44.712Z,931.72
2017-07-22T03:54:03.608Z,931.7
2017-07-22T03:54:22.383Z,931.7
2017-07-22T03:54:41.706Z,931.71
2017-07-22T03:55:00.970Z,931.73
2017-07-22T03:55:20.265Z,931.72
2017-07-22T03:55:39.541Z,931.76
2017-07-22T03:55:58.816Z,931.69
2017-07-22T03:56:17.587Z,931.75
2017-07-22T03:56:36.894Z,931.75
2017-07-22T03:56:56.162Z,931.72
2017-07-22T03:57:15.437Z,931.74
2017-07-22T03:57:34.688Z,931.74
2017-07-22T03:57:53.987Z,931.72
2017-07-22T03:58:13.265Z,931.76
2017-07-22T03:58:32.552Z,931.71
2017-07-22T03:58:51.820Z,931.7
2017-07-22T03:59:11.079Z,931.66
2017-07-22T03:59:29.851Z,931.7
2017-07-22T03:59:48.616Z,931.66
2017-07-22T04:00:07.895Z,931.69